sensor_id;sensor_type;location;lat;lon;timestamp;temperature;humidity
53294;DHT22;39181;53.440;5.644;2024-01-07T00:02:14;0.40;99.90
53294;DHT22;39181;53.440;5.644;2024-01-07T00:04:40;0.80;99.90
53294;DHT22;39181;53.440;5.644;2024-01-07T00:07:06;0.40;99.90
53294;DHT22;39181;53.440;5.644;2024-01-07T00:09:31;0.30;99.90
53294;DHT22;39181;53.440;5.644;2024-01-07T00:11:57;0.90;99.90
53294;DHT22;39181;53.440;5.644;2024-01-07T00:14:22;0.90;99.90
53294;DHT22;39181;53.440;5.644;2024-01-07T00:16:48;0.30;99.90
53294;DHT22;39181;53.440;5.644;2024-01-07T00:19:14;0.90;99.90
53294;DHT22;39181;53.440;5.644;2024-01-07T00:21:39;0.50;99.90
53294;DHT22;39181;53.440;5.644;2024-01-07T00:24:05;0.40;99.90
53294;DHT22;39181;53.440;5.644;2024-01-07T00:26:30;0.90;99.90
53294;DHT22;39181;53.440;5.644;2024-01-07T00:28:56;0.90;99.90
53294;DHT22;39181;53.440;5.644;2024-01-07T00:31:21;0.70;99.90
53294;DHT22;39181;53.440;5.644;2024-01-07T00:33:47;0.50;99.90
53294;DHT22;39181;53.440;5.644;2024-01-07T00:36:13;1.00;99.90
53294;DHT22;39181;53.440;5.644;2024-01-07T00:38:38;0.70;99.90
53294;DHT22;39181;53.440;5.644;2024-01-07T00:41:04;0.40;99.90
53294;DHT22;39181;53.440;5.644;2024-01-07T00:43:30;0.90;99.90
53294;DHT22;39181;53.440;5.644;2024-01-07T00:45:55;0.80;99.90
53294;DHT22;39181;53.440;5.644;2024-01-07T00:48:21;0.40;99.90
53294;DHT22;39181;53.440;5.644;2024-01-07T00:50:46;0.90;99.90
53294;DHT22;39181;53.440;5.644;2024-01-07T00:53:12;0.80;99.90
53294;DHT22;39181;53.440;5.644;2024-01-07T00:55:39;1.00;99.90
53294;DHT22;39181;53.440;5.644;2024-01-07T00:58:04;0.30;99.90
53294;DHT22;39181;53.440;5.644;2024-01-07T01:00:30;0.80;99.90
53294;DHT22;39181;53.440;5.644;2024-01-07T01:02:56;0.70;99.90
53294;DHT22;39181;53.440;5.644;2024-01-07T01:05:21;0.50;99.90
53294;DHT22;39181;53.440;5.644;2024-01-07T01:07:47;0.70;99.90
53294;DHT22;39181;53.440;5.644;2024-01-07T01:10:13;0.20;99.90
53294;DHT22;39181;53.440;5.644;2024-01-07T01:12:42;0.60;99.90
53294;DHT22;39181;53.440;5.644;2024-01-07T01:15:08;0.20;99.90
53294;DHT22;39181;53.440;5.644;2024-01-07T01:17:33;0.20;99.90
53294;DHT22;39181;53.440;5.644;2024-01-07T01:19:59;0.60;99.90
53294;DHT22;39181;53.440;5.644;2024-01-07T01:22:25;0.50;99.90
53294;DHT22;39181;53.440;5.644;2024-01-07T01:24:50;0.30;99.90
53294;DHT22;39181;53.440;5.644;2024-01-07T01:27:16;0.50;99.90
53294;DHT22;39181;53.440;5.644;2024-01-07T01:29:42;0.50;99.90
53294;DHT22;39181;53.440;5.644;2024-01-07T01:32:07;0.80;99.90
53294;DHT22;39181;53.440;5.644;2024-01-07T01:34:33;0.80;99.90
53294;DHT22;39181;53.440;5.644;2024-01-07T01:36:58;0.80;99.90
53294;DHT22;39181;53.440;5.644;2024-01-07T01:39:24;0.70;99.90
53294;DHT22;39181;53.440;5.644;2024-01-07T01:41:49;0.60;99.90
53294;DHT22;39181;53.440;5.644;2024-01-07T01:44:15;0.60;99.90
53294;DHT22;39181;53.440;5.644;2024-01-07T01:46:40;0.40;99.90
53294;DHT22;39181;53.440;5.644;2024-01-07T01:49:07;0.40;99.90
53294;DHT22;39181;53.440;5.644;2024-01-07T01:51:34;0.60;99.90
53294;DHT22;39181;53.440;5.644;2024-01-07T01:54:00;0.50;99.90
53294;DHT22;39181;53.440;5.644;2024-01-07T01:56:27;0.50;99.90
53294;DHT22;39181;53.440;5.644;2024-01-07T01:58:53;0.20;99.90
53294;DHT22;39181;53.440;5.644;2024-01-07T02:01:19;0.40;99.90
53294;DHT22;39181;53.440;5.644;2024-01-07T02:03:45;0.30;99.90
53294;DHT22;39181;53.440;5.644;2024-01-07T02:06:11;0.10;99.90
53294;DHT22;39181;53.440;5.644;2024-01-07T02:08:38;0.30;99.90
53294;DHT22;39181;53.440;5.644;2024-01-07T02:11:20;0.10;99.90
53294;DHT22;39181;53.440;5.644;2024-01-07T02:13:46;0.00;99.90
53294;DHT22;39181;53.440;5.644;2024-01-07T02:16:12;0.00;99.90
53294;DHT22;39181;53.440;5.644;2024-01-07T02:18:40;0.00;99.90
53294;DHT22;39181;53.440;5.644;2024-01-07T02:21:08;0.10;99.90
53294;DHT22;39181;53.440;5.644;2024-01-07T02:23:34;0.00;99.90
53294;DHT22;39181;53.440;5.644;2024-01-07T02:25:59;0.30;99.90
53294;DHT22;39181;53.440;5.644;2024-01-07T02:28:25;0.30;99.90
53294;DHT22;39181;53.440;5.644;2024-01-07T02:30:50;0.00;99.90
53294;DHT22;39181;53.440;5.644;2024-01-07T02:33:16;0.10;99.90
53294;DHT22;39181;53.440;5.644;2024-01-07T02:35:42;0.00;99.90
53294;DHT22;39181;53.440;5.644;2024-01-07T02:38:07;0.10;99.90
53294;DHT22;39181;53.440;5.644;2024-01-07T02:40:33;0.10;99.90
53294;DHT22;39181;53.440;5.644;2024-01-07T02:42:58;0.00;99.90
53294;DHT22;39181;53.440;5.644;2024-01-07T02:45:24;0.00;99.90
53294;DHT22;39181;53.440;5.644;2024-01-07T02:47:50;0.30;99.90
53294;DHT22;39181;53.440;5.644;2024-01-07T02:50:15;0.20;99.90
53294;DHT22;39181;53.440;5.644;2024-01-07T02:52:43;0.40;99.90
53294;DHT22;39181;53.440;5.644;2024-01-07T02:55:09;0.50;99.90
53294;DHT22;39181;53.440;5.644;2024-01-07T02:57:35;0.40;99.90
53294;DHT22;39181;53.440;5.644;2024-01-07T03:00:00;0.50;99.90
53294;DHT22;39181;53.440;5.644;2024-01-07T03:02:26;0.40;99.90
53294;DHT22;39181;53.440;5.644;2024-01-07T03:04:51;0.50;99.90
53294;DHT22;39181;53.440;5.644;2024-01-07T03:07:17;0.30;99.90
53294;DHT22;39181;53.440;5.644;2024-01-07T03:09:43;0.40;99.90
53294;DHT22;39181;53.440;5.644;2024-01-07T03:12:08;0.20;99.90
53294;DHT22;39181;53.440;5.644;2024-01-07T03:14:34;0.20;99.90
53294;DHT22;39181;53.440;5.644;2024-01-07T03:16:59;0.10;99.90
53294;DHT22;39181;53.440;5.644;2024-01-07T03:19:25;0.30;99.90
53294;DHT22;39181;53.440;5.644;2024-01-07T03:21:51;0.20;99.90
53294;DHT22;39181;53.440;5.644;2024-01-07T03:24:16;0.20;99.90
53294;DHT22;39181;53.440;5.644;2024-01-07T03:26:42;0.20;99.90
53294;DHT22;39181;53.440;5.644;2024-01-07T03:29:07;0.10;99.90
53294;DHT22;39181;53.440;5.644;2024-01-07T03:31:33;0.10;99.90
53294;DHT22;39181;53.440;5.644;2024-01-07T03:33:59;0.10;99.90
53294;DHT22;39181;53.440;5.644;2024-01-07T03:36:24;0.00;99.90
53294;DHT22;39181;53.440;5.644;2024-01-07T03:38:50;0.10;99.90
53294;DHT22;39181;53.440;5.644;2024-01-07T03:41:17;0.10;99.90
53294;DHT22;39181;53.440;5.644;2024-01-07T03:43:46;0.20;99.90
53294;DHT22;39181;53.440;5.644;2024-01-07T03:46:13;0.20;99.90
53294;DHT22;39181;53.440;5.644;2024-01-07T03:48:38;0.20;99.90
53294;DHT22;39181;53.440;5.644;2024-01-07T03:51:04;0.20;99.90
53294;DHT22;39181;53.440;5.644;2024-01-07T03:53:30;0.10;99.90
53294;DHT22;39181;53.440;5.644;2024-01-07T03:55:55;0.00;99.90
53294;DHT22;39181;53.440;5.644;2024-01-07T03:58:21;0.10;99.90
53294;DHT22;39181;53.440;5.644;2024-01-07T04:00:46;0.10;99.90
53294;DHT22;39181;53.440;5.644;2024-01-07T04:03:12;0.20;99.90
53294;DHT22;39181;53.440;5.644;2024-01-07T04:05:37;0.10;99.90
53294;DHT22;39181;53.440;5.644;2024-01-07T04:08:03;0.30;99.90
53294;DHT22;39181;53.440;5.644;2024-01-07T04:10:29;0.40;99.90
53294;DHT22;39181;53.440;5.644;2024-01-07T04:12:54;0.40;99.90
53294;DHT22;39181;53.440;5.644;2024-01-07T04:15:20;0.30;99.90
53294;DHT22;39181;53.440;5.644;2024-01-07T04:17:46;0.60;99.90
53294;DHT22;39181;53.440;5.644;2024-01-07T04:20:15;0.40;99.90
53294;DHT22;39181;53.440;5.644;2024-01-07T04:22:40;0.50;99.90
53294;DHT22;39181;53.440;5.644;2024-01-07T04:25:06;0.40;99.90
53294;DHT22;39181;53.440;5.644;2024-01-07T04:27:37;0.40;99.90
53294;DHT22;39181;53.440;5.644;2024-01-07T04:30:04;0.40;99.90
53294;DHT22;39181;53.440;5.644;2024-01-07T04:32:30;0.50;99.90
53294;DHT22;39181;53.440;5.644;2024-01-07T04:34:55;0.50;99.90
53294;DHT22;39181;53.440;5.644;2024-01-07T04:37:22;0.60;99.90
53294;DHT22;39181;53.440;5.644;2024-01-07T04:39:48;0.40;99.90
53294;DHT22;39181;53.440;5.644;2024-01-07T04:42:13;0.50;99.90
53294;DHT22;39181;53.440;5.644;2024-01-07T04:44:39;0.50;99.90
53294;DHT22;39181;53.440;5.644;2024-01-07T04:47:05;0.50;99.90
53294;DHT22;39181;53.440;5.644;2024-01-07T04:49:30;0.60;99.90
53294;DHT22;39181;53.440;5.644;2024-01-07T04:51:56;0.50;99.90
53294;DHT22;39181;53.440;5.644;2024-01-07T04:54:21;0.40;99.90
53294;DHT22;39181;53.440;5.644;2024-01-07T04:56:47;0.60;99.90
53294;DHT22;39181;53.440;5.644;2024-01-07T04:59:12;0.50;99.90
53294;DHT22;39181;53.440;5.644;2024-01-07T05:01:38;0.50;99.90
53294;DHT22;39181;53.440;5.644;2024-01-07T05:04:03;0.50;99.90
53294;DHT22;39181;53.440;5.644;2024-01-07T05:06:29;0.50;99.90
53294;DHT22;39181;53.440;5.644;2024-01-07T05:08:55;0.60;99.90
53294;DHT22;39181;53.440;5.644;2024-01-07T05:11:20;0.60;99.90
53294;DHT22;39181;53.440;5.644;2024-01-07T05:13:46;0.50;99.90
53294;DHT22;39181;53.440;5.644;2024-01-07T05:16:19;0.60;99.90
53294;DHT22;39181;53.440;5.644;2024-01-07T05:18:44;0.70;99.90
53294;DHT22;39181;53.440;5.644;2024-01-07T05:21:14;0.70;99.90
53294;DHT22;39181;53.440;5.644;2024-01-07T05:23:40;0.60;99.90
53294;DHT22;39181;53.440;5.644;2024-01-07T05:26:06;0.60;99.90
53294;DHT22;39181;53.440;5.644;2024-01-07T05:28:31;0.60;99.90
53294;DHT22;39181;53.440;5.644;2024-01-07T05:30:57;0.70;99.90
53294;DHT22;39181;53.440;5.644;2024-01-07T05:33:22;0.70;99.90
53294;DHT22;39181;53.440;5.644;2024-01-07T05:35:48;0.80;99.90
53294;DHT22;39181;53.440;5.644;2024-01-07T05:38:13;0.70;99.90
53294;DHT22;39181;53.440;5.644;2024-01-07T05:40:39;0.70;99.90
53294;DHT22;39181;53.440;5.644;2024-01-07T05:43:05;0.70;99.90
53294;DHT22;39181;53.440;5.644;2024-01-07T05:45:30;0.70;99.90
53294;DHT22;39181;53.440;5.644;2024-01-07T05:47:56;0.70;99.90
53294;DHT22;39181;53.440;5.644;2024-01-07T05:50:21;0.70;99.90
53294;DHT22;39181;53.440;5.644;2024-01-07T05:52:47;0.80;99.90
53294;DHT22;39181;53.440;5.644;2024-01-07T05:55:12;0.80;99.90
53294;DHT22;39181;53.440;5.644;2024-01-07T05:57:38;0.80;99.90
53294;DHT22;39181;53.440;5.644;2024-01-07T06:00:04;0.80;99.90
53294;DHT22;39181;53.440;5.644;2024-01-07T06:02:30;0.80;99.90
53294;DHT22;39181;53.440;5.644;2024-01-07T06:04:55;0.80;99.90
53294;DHT22;39181;53.440;5.644;2024-01-07T06:07:21;0.80;99.90
53294;DHT22;39181;53.440;5.644;2024-01-07T06:09:46;0.80;99.90
53294;DHT22;39181;53.440;5.644;2024-01-07T06:12:13;0.80;99.90
53294;DHT22;39181;53.440;5.644;2024-01-07T06:14:39;0.70;99.90
53294;DHT22;39181;53.440;5.644;2024-01-07T06:17:04;0.80;99.90
53294;DHT22;39181;53.440;5.644;2024-01-07T06:19:30;0.90;99.90
53294;DHT22;39181;53.440;5.644;2024-01-07T06:21:56;0.80;99.90
53294;DHT22;39181;53.440;5.644;2024-01-07T06:24:22;0.80;99.90
53294;DHT22;39181;53.440;5.644;2024-01-07T06:26:47;0.90;99.90
53294;DHT22;39181;53.440;5.644;2024-01-07T06:29:13;0.80;99.90
53294;DHT22;39181;53.440;5.644;2024-01-07T06:31:44;0.90;99.90
53294;DHT22;39181;53.440;5.644;2024-01-07T06:34:10;0.90;99.90
53294;DHT22;39181;53.440;5.644;2024-01-07T06:36:39;0.90;99.90
53294;DHT22;39181;53.440;5.644;2024-01-07T06:39:05;0.90;99.90
53294;DHT22;39181;53.440;5.644;2024-01-07T06:41:30;0.80;99.90
53294;DHT22;39181;53.440;5.644;2024-01-07T06:43:56;0.80;99.90
53294;DHT22;39181;53.440;5.644;2024-01-07T06:46:22;0.80;99.90
53294;DHT22;39181;53.440;5.644;2024-01-07T06:48:48;0.80;99.90
53294;DHT22;39181;53.440;5.644;2024-01-07T06:51:14;0.80;99.90
53294;DHT22;39181;53.440;5.644;2024-01-07T06:53:40;0.70;99.90
53294;DHT22;39181;53.440;5.644;2024-01-07T06:56:06;0.80;99.90
53294;DHT22;39181;53.440;5.644;2024-01-07T06:58:31;0.80;99.90
53294;DHT22;39181;53.440;5.644;2024-01-07T07:00:58;0.70;99.90
53294;DHT22;39181;53.440;5.644;2024-01-07T07:03:23;0.80;99.90
53294;DHT22;39181;53.440;5.644;2024-01-07T07:05:49;0.70;99.90
53294;DHT22;39181;53.440;5.644;2024-01-07T07:08:15;0.70;99.90
53294;DHT22;39181;53.440;5.644;2024-01-07T07:10:40;0.70;99.90
53294;DHT22;39181;53.440;5.644;2024-01-07T07:13:06;0.60;99.90
53294;DHT22;39181;53.440;5.644;2024-01-07T07:15:31;0.60;99.90
53294;DHT22;39181;53.440;5.644;2024-01-07T07:17:57;0.70;99.90
53294;DHT22;39181;53.440;5.644;2024-01-07T07:20:23;0.60;99.90
53294;DHT22;39181;53.440;5.644;2024-01-07T07:22:48;0.50;99.90
53294;DHT22;39181;53.440;5.644;2024-01-07T07:25:14;0.40;99.90
53294;DHT22;39181;53.440;5.644;2024-01-07T07:27:40;0.60;99.90
53294;DHT22;39181;53.440;5.644;2024-01-07T07:30:06;0.40;99.90
53294;DHT22;39181;53.440;5.644;2024-01-07T07:32:32;0.60;99.90
53294;DHT22;39181;53.440;5.644;2024-01-07T07:34:57;0.50;99.90
53294;DHT22;39181;53.440;5.644;2024-01-07T07:37:23;0.50;99.90
53294;DHT22;39181;53.440;5.644;2024-01-07T07:39:49;0.50;99.90
53294;DHT22;39181;53.440;5.644;2024-01-07T07:42:15;0.40;99.90
53294;DHT22;39181;53.440;5.644;2024-01-07T07:44:41;0.60;99.90
53294;DHT22;39181;53.440;5.644;2024-01-07T07:47:07;0.50;99.90
53294;DHT22;39181;53.440;5.644;2024-01-07T07:49:33;0.50;99.90
53294;DHT22;39181;53.440;5.644;2024-01-07T07:52:00;0.50;99.90
53294;DHT22;39181;53.440;5.644;2024-01-07T07:54:26;0.50;99.90
53294;DHT22;39181;53.440;5.644;2024-01-07T07:56:52;0.50;99.90
53294;DHT22;39181;53.440;5.644;2024-01-07T07:59:17;0.50;99.90
53294;DHT22;39181;53.440;5.644;2024-01-07T08:01:43;0.40;99.90
53294;DHT22;39181;53.440;5.644;2024-01-07T08:04:10;0.50;99.90
53294;DHT22;39181;53.440;5.644;2024-01-07T08:06:36;0.50;99.90
53294;DHT22;39181;53.440;5.644;2024-01-07T08:09:02;0.50;99.90
53294;DHT22;39181;53.440;5.644;2024-01-07T08:11:28;0.50;99.90
53294;DHT22;39181;53.440;5.644;2024-01-07T08:13:54;0.50;99.90
53294;DHT22;39181;53.440;5.644;2024-01-07T08:16:20;0.50;99.90
53294;DHT22;39181;53.440;5.644;2024-01-07T08:18:46;0.50;99.90
53294;DHT22;39181;53.440;5.644;2024-01-07T08:21:12;0.40;99.90
53294;DHT22;39181;53.440;5.644;2024-01-07T08:23:37;0.40;99.90
53294;DHT22;39181;53.440;5.644;2024-01-07T08:26:03;0.40;99.90
53294;DHT22;39181;53.440;5.644;2024-01-07T08:28:29;0.30;99.90
53294;DHT22;39181;53.440;5.644;2024-01-07T08:30:54;0.20;99.90
53294;DHT22;39181;53.440;5.644;2024-01-07T08:33:21;0.30;99.90
53294;DHT22;39181;53.440;5.644;2024-01-07T08:35:47;0.30;99.90
53294;DHT22;39181;53.440;5.644;2024-01-07T08:38:12;0.40;99.90
53294;DHT22;39181;53.440;5.644;2024-01-07T08:40:39;0.50;99.90
53294;DHT22;39181;53.440;5.644;2024-01-07T08:43:05;0.30;99.90
53294;DHT22;39181;53.440;5.644;2024-01-07T08:45:30;0.30;99.90
53294;DHT22;39181;53.440;5.644;2024-01-07T08:47:56;0.40;99.90
53294;DHT22;39181;53.440;5.644;2024-01-07T08:50:21;0.40;99.90
53294;DHT22;39181;53.440;5.644;2024-01-07T08:52:47;0.50;99.90
53294;DHT22;39181;53.440;5.644;2024-01-07T08:55:13;0.50;99.90
53294;DHT22;39181;53.440;5.644;2024-01-07T08:57:38;0.50;99.90
53294;DHT22;39181;53.440;5.644;2024-01-07T09:00:05;0.60;99.90
53294;DHT22;39181;53.440;5.644;2024-01-07T09:02:33;0.60;99.90
53294;DHT22;39181;53.440;5.644;2024-01-07T09:04:58;0.60;99.90
53294;DHT22;39181;53.440;5.644;2024-01-07T09:07:24;0.60;99.90
53294;DHT22;39181;53.440;5.644;2024-01-07T09:09:50;0.60;99.90
53294;DHT22;39181;53.440;5.644;2024-01-07T09:12:16;0.60;99.90
53294;DHT22;39181;53.440;5.644;2024-01-07T09:14:42;0.70;99.90
53294;DHT22;39181;53.440;5.644;2024-01-07T09:17:08;0.70;99.90
53294;DHT22;39181;53.440;5.644;2024-01-07T09:19:33;0.70;99.90
53294;DHT22;39181;53.440;5.644;2024-01-07T09:21:59;0.70;99.90
53294;DHT22;39181;53.440;5.644;2024-01-07T09:24:24;0.80;99.90
53294;DHT22;39181;53.440;5.644;2024-01-07T09:26:50;0.80;99.90
53294;DHT22;39181;53.440;5.644;2024-01-07T09:29:17;0.70;99.90
53294;DHT22;39181;53.440;5.644;2024-01-07T09:31:42;0.80;99.90
53294;DHT22;39181;53.440;5.644;2024-01-07T09:34:08;1.10;99.90
53294;DHT22;39181;53.440;5.644;2024-01-07T09:36:33;0.80;99.90
53294;DHT22;39181;53.440;5.644;2024-01-07T09:39:01;0.80;99.90
53294;DHT22;39181;53.440;5.644;2024-01-07T09:41:26;0.80;99.90
53294;DHT22;39181;53.440;5.644;2024-01-07T09:43:52;0.80;99.90
53294;DHT22;39181;53.440;5.644;2024-01-07T09:46:19;0.70;99.90
53294;DHT22;39181;53.440;5.644;2024-01-07T09:48:44;0.70;99.90
53294;DHT22;39181;53.440;5.644;2024-01-07T09:51:10;0.70;99.90
53294;DHT22;39181;53.440;5.644;2024-01-07T09:53:38;0.60;99.90
53294;DHT22;39181;53.440;5.644;2024-01-07T09:56:39;0.60;99.90
53294;DHT22;39181;53.440;5.644;2024-01-07T09:59:08;0.70;99.90
53294;DHT22;39181;53.440;5.644;2024-01-07T10:01:34;0.70;99.90
53294;DHT22;39181;53.440;5.644;2024-01-07T10:04:01;0.60;99.90
53294;DHT22;39181;53.440;5.644;2024-01-07T10:06:26;0.70;99.90
53294;DHT22;39181;53.440;5.644;2024-01-07T10:08:52;0.60;99.90
53294;DHT22;39181;53.440;5.644;2024-01-07T10:11:17;0.70;99.90
53294;DHT22;39181;53.440;5.644;2024-01-07T10:13:46;0.60;99.90
53294;DHT22;39181;53.440;5.644;2024-01-07T10:16:16;0.60;99.90
53294;DHT22;39181;53.440;5.644;2024-01-07T10:18:42;0.70;99.90
53294;DHT22;39181;53.440;5.644;2024-01-07T10:21:07;0.70;99.90
53294;DHT22;39181;53.440;5.644;2024-01-07T10:23:33;0.70;99.90
53294;DHT22;39181;53.440;5.644;2024-01-07T10:25:59;0.70;99.90
53294;DHT22;39181;53.440;5.644;2024-01-07T10:28:24;0.70;99.90
53294;DHT22;39181;53.440;5.644;2024-01-07T10:30:50;0.70;99.90
53294;DHT22;39181;53.440;5.644;2024-01-07T10:33:17;0.80;99.90
53294;DHT22;39181;53.440;5.644;2024-01-07T10:35:48;0.80;99.90
53294;DHT22;39181;53.440;5.644;2024-01-07T10:38:16;1.00;99.90
53294;DHT22;39181;53.440;5.644;2024-01-07T10:40:43;0.90;99.90
53294;DHT22;39181;53.440;5.644;2024-01-07T10:43:09;0.80;99.90
53294;DHT22;39181;53.440;5.644;2024-01-07T10:45:34;0.90;99.90
53294;DHT22;39181;53.440;5.644;2024-01-07T10:48:04;1.00;99.90
53294;DHT22;39181;53.440;5.644;2024-01-07T10:50:31;1.00;99.90
53294;DHT22;39181;53.440;5.644;2024-01-07T10:52:59;1.20;99.90
53294;DHT22;39181;53.440;5.644;2024-01-07T10:55:33;1.30;99.90
53294;DHT22;39181;53.440;5.644;2024-01-07T10:58:00;1.30;99.90
53294;DHT22;39181;53.440;5.644;2024-01-07T11:00:26;1.30;99.90
53294;DHT22;39181;53.440;5.644;2024-01-07T11:05:29;1.30;99.90
53294;DHT22;39181;53.440;5.644;2024-01-07T11:08:03;1.30;99.90
53294;DHT22;39181;53.440;5.644;2024-01-07T11:10:37;1.30;99.90
53294;DHT22;39181;53.440;5.644;2024-01-07T11:13:04;1.40;99.90
53294;DHT22;39181;53.440;5.644;2024-01-07T11:18:20;1.40;99.90
53294;DHT22;39181;53.440;5.644;2024-01-07T11:20:46;1.40;99.90
53294;DHT22;39181;53.440;5.644;2024-01-07T11:23:29;1.50;99.90
53294;DHT22;39181;53.440;5.644;2024-01-07T11:25:57;1.50;99.90
53294;DHT22;39181;53.440;5.644;2024-01-07T11:28:51;1.60;99.90
53294;DHT22;39181;53.440;5.644;2024-01-07T11:31:42;1.70;99.90
53294;DHT22;39181;53.440;5.644;2024-01-07T11:34:08;1.60;99.90
53294;DHT22;39181;53.440;5.644;2024-01-07T11:36:37;1.70;99.90
53294;DHT22;39181;53.440;5.644;2024-01-07T11:39:04;1.60;99.90
53294;DHT22;39181;53.440;5.644;2024-01-07T11:41:33;1.60;99.90
53294;DHT22;39181;53.440;5.644;2024-01-07T11:43:59;1.60;99.90
53294;DHT22;39181;53.440;5.644;2024-01-07T11:46:26;1.60;99.90
53294;DHT22;39181;53.440;5.644;2024-01-07T11:48:57;1.70;99.90
53294;DHT22;39181;53.440;5.644;2024-01-07T11:51:33;1.70;99.90
53294;DHT22;39181;53.440;5.644;2024-01-07T11:54:01;1.60;99.90
53294;DHT22;39181;53.440;5.644;2024-01-07T11:56:28;1.60;99.90
53294;DHT22;39181;53.440;5.644;2024-01-07T11:58:53;1.60;99.90
53294;DHT22;39181;53.440;5.644;2024-01-07T12:01:19;1.60;99.90
53294;DHT22;39181;53.440;5.644;2024-01-07T12:03:45;1.50;99.90
53294;DHT22;39181;53.440;5.644;2024-01-07T12:06:11;1.60;99.90
53294;DHT22;39181;53.440;5.644;2024-01-07T12:08:43;1.60;99.90
53294;DHT22;39181;53.440;5.644;2024-01-07T12:11:13;1.70;99.90
53294;DHT22;39181;53.440;5.644;2024-01-07T12:13:39;1.60;99.90
53294;DHT22;39181;53.440;5.644;2024-01-07T12:16:06;1.60;99.90
53294;DHT22;39181;53.440;5.644;2024-01-07T12:18:32;1.60;99.90
53294;DHT22;39181;53.440;5.644;2024-01-07T12:20:58;1.60;99.90
53294;DHT22;39181;53.440;5.644;2024-01-07T12:23:25;1.70;99.90
53294;DHT22;39181;53.440;5.644;2024-01-07T12:25:52;1.70;99.90
53294;DHT22;39181;53.440;5.644;2024-01-07T12:28:18;1.70;99.90
53294;DHT22;39181;53.440;5.644;2024-01-07T12:30:45;1.70;99.90
53294;DHT22;39181;53.440;5.644;2024-01-07T12:33:10;1.80;99.90
53294;DHT22;39181;53.440;5.644;2024-01-07T12:35:36;1.80;99.90
53294;DHT22;39181;53.440;5.644;2024-01-07T12:38:02;1.80;99.90
53294;DHT22;39181;53.440;5.644;2024-01-07T12:40:30;1.90;99.90
53294;DHT22;39181;53.440;5.644;2024-01-07T12:42:55;1.90;99.90
53294;DHT22;39181;53.440;5.644;2024-01-07T12:45:21;1.90;99.90
53294;DHT22;39181;53.440;5.644;2024-01-07T12:47:46;1.90;99.90
53294;DHT22;39181;53.440;5.644;2024-01-07T12:50:13;2.00;99.90
53294;DHT22;39181;53.440;5.644;2024-01-07T12:52:39;2.80;99.90
53294;DHT22;39181;53.440;5.644;2024-01-07T12:55:06;1.90;99.90
53294;DHT22;39181;53.440;5.644;2024-01-07T12:57:32;1.90;99.90
53294;DHT22;39181;53.440;5.644;2024-01-07T12:59:58;1.90;99.90
53294;DHT22;39181;53.440;5.644;2024-01-07T13:02:23;1.80;99.90
53294;DHT22;39181;53.440;5.644;2024-01-07T13:04:50;1.80;99.90
53294;DHT22;39181;53.440;5.644;2024-01-07T13:07:16;1.70;99.90
53294;DHT22;39181;53.440;5.644;2024-01-07T13:09:41;1.70;99.90
53294;DHT22;39181;53.440;5.644;2024-01-07T13:12:07;1.70;99.90
53294;DHT22;39181;53.440;5.644;2024-01-07T13:14:33;1.70;99.90
53294;DHT22;39181;53.440;5.644;2024-01-07T13:16:59;1.60;99.90
53294;DHT22;39181;53.440;5.644;2024-01-07T13:19:24;1.70;99.90
53294;DHT22;39181;53.440;5.644;2024-01-07T13:21:52;1.70;99.90
53294;DHT22;39181;53.440;5.644;2024-01-07T13:24:20;1.80;99.90
53294;DHT22;39181;53.440;5.644;2024-01-07T13:26:47;1.90;99.90
53294;DHT22;39181;53.440;5.644;2024-01-07T13:29:12;1.90;99.90
53294;DHT22;39181;53.440;5.644;2024-01-07T13:31:38;2.00;99.90
53294;DHT22;39181;53.440;5.644;2024-01-07T13:34:03;2.00;99.90
53294;DHT22;39181;53.440;5.644;2024-01-07T13:36:29;2.00;99.90
53294;DHT22;39181;53.440;5.644;2024-01-07T13:38:54;2.10;99.90
53294;DHT22;39181;53.440;5.644;2024-01-07T13:41:20;2.20;99.90
53294;DHT22;39181;53.440;5.644;2024-01-07T13:43:46;2.40;99.90
53294;DHT22;39181;53.440;5.644;2024-01-07T13:46:11;2.30;99.90
53294;DHT22;39181;53.440;5.644;2024-01-07T13:48:37;2.20;99.90
53294;DHT22;39181;53.440;5.644;2024-01-07T13:51:05;2.20;99.90
53294;DHT22;39181;53.440;5.644;2024-01-07T13:53:31;2.00;99.90
53294;DHT22;39181;53.440;5.644;2024-01-07T13:55:57;2.00;99.90
53294;DHT22;39181;53.440;5.644;2024-01-07T13:58:22;2.00;99.90
53294;DHT22;39181;53.440;5.644;2024-01-07T14:00:49;2.00;99.90
53294;DHT22;39181;53.440;5.644;2024-01-07T14:03:14;2.00;99.90
53294;DHT22;39181;53.440;5.644;2024-01-07T14:05:40;2.10;99.90
53294;DHT22;39181;53.440;5.644;2024-01-07T14:08:06;2.00;99.90
53294;DHT22;39181;53.440;5.644;2024-01-07T14:10:31;2.00;99.90
53294;DHT22;39181;53.440;5.644;2024-01-07T14:12:57;2.10;99.90
53294;DHT22;39181;53.440;5.644;2024-01-07T14:15:23;2.10;99.90
53294;DHT22;39181;53.440;5.644;2024-01-07T14:17:49;2.30;99.90
53294;DHT22;39181;53.440;5.644;2024-01-07T14:20:14;2.20;99.90
53294;DHT22;39181;53.440;5.644;2024-01-07T14:22:40;2.20;99.90
53294;DHT22;39181;53.440;5.644;2024-01-07T14:25:05;2.20;99.90
53294;DHT22;39181;53.440;5.644;2024-01-07T14:27:31;2.20;99.90
53294;DHT22;39181;53.440;5.644;2024-01-07T14:29:57;2.20;99.90
53294;DHT22;39181;53.440;5.644;2024-01-07T14:32:22;2.10;99.90
53294;DHT22;39181;53.440;5.644;2024-01-07T14:34:48;1.90;99.90
53294;DHT22;39181;53.440;5.644;2024-01-07T14:37:15;2.00;99.90
53294;DHT22;39181;53.440;5.644;2024-01-07T14:39:41;2.10;99.90
53294;DHT22;39181;53.440;5.644;2024-01-07T14:42:07;2.00;99.90
53294;DHT22;39181;53.440;5.644;2024-01-07T14:44:33;2.00;99.90
53294;DHT22;39181;53.440;5.644;2024-01-07T14:46:58;2.00;99.90
53294;DHT22;39181;53.440;5.644;2024-01-07T14:49:24;2.00;99.90
53294;DHT22;39181;53.440;5.644;2024-01-07T14:51:50;1.80;99.90
53294;DHT22;39181;53.440;5.644;2024-01-07T14:54:16;1.70;99.90
53294;DHT22;39181;53.440;5.644;2024-01-07T14:56:41;1.90;99.90
53294;DHT22;39181;53.440;5.644;2024-01-07T14:59:08;1.80;99.90
53294;DHT22;39181;53.440;5.644;2024-01-07T15:01:34;1.80;99.90
53294;DHT22;39181;53.440;5.644;2024-01-07T15:04:00;1.90;99.90
53294;DHT22;39181;53.440;5.644;2024-01-07T15:06:25;1.80;99.90
53294;DHT22;39181;53.440;5.644;2024-01-07T15:08:52;1.60;99.90
53294;DHT22;39181;53.440;5.644;2024-01-07T15:11:19;1.70;99.90
53294;DHT22;39181;53.440;5.644;2024-01-07T15:13:44;1.80;99.90
53294;DHT22;39181;53.440;5.644;2024-01-07T15:16:10;1.60;99.90
53294;DHT22;39181;53.440;5.644;2024-01-07T15:18:35;1.70;99.90
53294;DHT22;39181;53.440;5.644;2024-01-07T15:21:02;1.80;99.90
53294;DHT22;39181;53.440;5.644;2024-01-07T15:23:28;1.90;99.90
53294;DHT22;39181;53.440;5.644;2024-01-07T15:25:54;1.70;99.90
53294;DHT22;39181;53.440;5.644;2024-01-07T15:28:19;1.60;99.90
53294;DHT22;39181;53.440;5.644;2024-01-07T15:30:45;1.70;99.90
53294;DHT22;39181;53.440;5.644;2024-01-07T15:33:12;1.50;99.90
53294;DHT22;39181;53.440;5.644;2024-01-07T15:35:38;1.70;99.90
53294;DHT22;39181;53.440;5.644;2024-01-07T15:38:03;1.60;99.90
53294;DHT22;39181;53.440;5.644;2024-01-07T15:40:29;1.50;99.90
53294;DHT22;39181;53.440;5.644;2024-01-07T15:42:56;1.60;99.90
53294;DHT22;39181;53.440;5.644;2024-01-07T15:45:21;1.50;99.90